createdAt,value
2018-07-09T00:00:13.984Z,101889.45
2018-07-09T00:03:19.680Z,101885.70
2018-07-09T00:06:24.429Z,101887.93
2018-07-09T00:09:35.897Z,101877.48
2018-07-09T00:12:41.328Z,101877.99
2018-07-09T00:15:46.659Z,101875.43
2018-07-09T00:18:51.375Z,101877.56
2018-07-09T00:25:08.071Z,101875.00
2018-07-09T00:28:14.214Z,101875.00
2018-07-09T00:31:20.139Z,101871.37
2018-07-09T00:34:28.333Z,101867.87
2018-07-09T00:37:33.704Z,101866.97
2018-07-09T00:40:48.921Z,101870.61
2018-07-09T00:43:58.242Z,101859.89
2018-07-09T00:47:07.476Z,101852.55
2018-07-09T00:50:13.405Z,101847.80
2018-07-09T00:53:20.672Z,101845.25
2018-07-09T00:56:25.751Z,101846.67
2018-07-09T00:59:30.343Z,101846.33
2018-07-09T01:02:36.109Z,101849.45
2018-07-09T01:05:46.830Z,101845.30
2018-07-09T01:08:51.905Z,101844.67
2018-07-09T01:12:10.258Z,101840.41
2018-07-09T01:15:16.888Z,101841.03
2018-07-09T01:18:31.429Z,101838.42
2018-07-09T01:21:39.705Z,101835.70
2018-07-09T01:24:44.598Z,101835.66
2018-07-09T01:27:49.527Z,101839.06
2018-07-09T01:30:55.946Z,101824.19
2018-07-09T01:34:00.335Z,101820.31
2018-07-09T01:37:06.635Z,101818.57
2018-07-09T01:40:16.780Z,101813.30
2018-07-09T01:43:28.783Z,101814.22
2018-07-09T01:46:33.359Z,101816.05
2018-07-09T01:49:38.048Z,101810.34
2018-07-09T01:52:43.011Z,101810.42
2018-07-09T01:55:49.734Z,101814.44
2018-07-09T01:58:54.304Z,101805.33
2018-07-09T02:02:01.065Z,101806.64
2018-07-09T02:05:05.524Z,101800.94
2018-07-09T02:08:10.785Z,101803.16
2018-07-09T02:11:15.841Z,101807.13
2018-07-09T02:14:20.371Z,101805.09
2018-07-09T02:17:26.138Z,101807.05
2018-07-09T02:20:31.138Z,101821.67
2018-07-09T02:23:35.833Z,101813.11
2018-07-09T02:26:41.340Z,101811.50
2018-07-09T02:29:45.894Z,101806.83
2018-07-09T02:32:50.518Z,101803.84
2018-07-09T02:35:56.116Z,101803.88
2018-07-09T02:39:01.775Z,101789.48
2018-07-09T02:42:06.729Z,101790.48
2018-07-09T02:45:12.668Z,101784.00
2018-07-09T02:48:18.377Z,101785.83
2018-07-09T02:51:23.474Z,101773.60
2018-07-09T02:54:28.765Z,101767.05
2018-07-09T02:57:34.110Z,101760.50
2018-07-09T03:00:38.882Z,101766.22
2018-07-09T03:03:44.378Z,101769.23
2018-07-09T03:06:48.939Z,101764.55
2018-07-09T03:09:53.482Z,101772.33
2018-07-09T03:12:59.320Z,101767.09
2018-07-09T03:16:04.811Z,101777.20
2018-07-09T03:19:12.689Z,101780.77
2018-07-09T03:22:17.519Z,101772.47
2018-07-09T03:25:22.831Z,101773.34
2018-07-09T03:28:27.553Z,101771.59
2018-07-09T03:31:32.219Z,101774.69
2018-07-09T03:34:38.697Z,101775.66
2018-07-09T03:37:43.072Z,101779.27
2018-07-09T03:40:47.357Z,101773.68
2018-07-09T03:43:52.054Z,101776.00
2018-07-09T03:46:59.396Z,101766.86
2018-07-09T03:50:10.948Z,101755.06
2018-07-09T03:53:15.306Z,101755.03
2018-07-09T03:56:20.362Z,101751.56
2018-07-09T03:59:26.476Z,101753.41
2018-07-09T04:02:31.631Z,101745.59
2018-07-09T04:05:36.287Z,101744.26
2018-07-09T04:08:40.437Z,101744.69
2018-07-09T04:11:44.841Z,101748.97
2018-07-09T04:14:49.123Z,101743.61
2018-07-09T04:17:53.625Z,101741.05
2018-07-09T04:20:58.168Z,101739.36
2018-07-09T04:24:02.585Z,101735.98
2018-07-09T04:27:08.237Z,101742.09
2018-07-09T04:30:12.675Z,101740.44
2018-07-09T04:33:17.257Z,101740.47
2018-07-09T04:36:22.061Z,101734.78
2018-07-09T04:39:26.516Z,101740.03
2018-07-09T04:42:31.296Z,101733.03
2018-07-09T04:45:36.254Z,101739.59
2018-07-09T04:48:40.590Z,101744.81
2018-07-09T04:51:45.096Z,101746.12
2018-07-09T04:54:49.404Z,101750.38
2018-07-09T04:57:53.823Z,101736.86
2018-07-09T05:00:58.392Z,101739.01
2018-07-09T05:04:02.853Z,101729.05
2018-07-09T05:07:07.206Z,101731.27
2018-07-09T05:10:11.645Z,101725.61
2018-07-09T05:13:16.065Z,101722.92
2018-07-09T05:16:20.703Z,101721.64
2018-07-09T05:19:25.110Z,101723.47
2018-07-09T05:22:29.625Z,101708.20
2018-07-09T05:25:34.505Z,101705.55
2018-07-09T05:28:39.141Z,101702.06
2018-07-09T05:31:43.616Z,101706.45
2018-07-09T05:34:48.211Z,101708.25
2018-07-09T05:37:53.114Z,101706.91
2018-07-09T05:40:58.051Z,101714.30
2018-07-09T05:44:02.822Z,101711.34
2018-07-09T05:47:07.292Z,101707.66
2018-07-09T05:50:11.674Z,101715.44
2018-07-09T05:53:16.520Z,101707.64
2018-07-09T05:56:23.379Z,101705.86
2018-07-09T05:59:29.925Z,101710.20
2018-07-09T06:02:34.685Z,101713.58
2018-07-09T06:05:39.038Z,101710.99
2018-07-09T06:08:43.375Z,101713.37
2018-07-09T06:11:48.030Z,101706.09
2018-07-09T06:14:53.724Z,101704.48
2018-07-09T06:17:58.159Z,101715.81
2018-07-09T06:21:02.560Z,101709.64
2018-07-09T06:24:07.200Z,101703.78
2018-07-09T06:27:11.931Z,101695.13
2018-07-09T06:30:16.610Z,101693.81
2018-07-09T06:33:20.951Z,101701.49
2018-07-09T06:36:25.386Z,101701.12
2018-07-09T06:39:29.894Z,101696.38
2018-07-09T06:42:34.312Z,101685.86
2018-07-09T06:45:38.811Z,101684.87
2018-07-09T06:48:43.101Z,101682.62
2018-07-09T06:51:47.424Z,101683.93
2018-07-09T06:54:52.837Z,101684.74
2018-07-09T06:57:57.202Z,101688.39
2018-07-09T07:01:01.649Z,101681.91
2018-07-09T07:04:06.336Z,101672.03
2018-07-09T07:07:10.815Z,101686.41
2018-07-09T07:10:15.112Z,101678.44
2018-07-09T07:13:19.392Z,101674.16
2018-07-09T07:16:23.827Z,101672.30
2018-07-09T07:19:28.179Z,101672.92
2018-07-09T07:22:32.541Z,101661.22
2018-07-09T07:25:37.240Z,101664.68
2018-07-09T07:28:41.717Z,101658.16
2018-07-09T07:31:46.171Z,101654.17
2018-07-09T07:34:50.841Z,101658.84
2018-07-09T07:37:55.176Z,101653.52
2018-07-09T07:40:59.761Z,101654.83
2018-07-09T07:44:04.224Z,101655.26
2018-07-09T07:47:09.178Z,101655.30
2018-07-09T07:50:13.919Z,101654.91
2018-07-09T07:53:18.283Z,101663.50
2018-07-09T07:56:22.601Z,101668.83
2018-07-09T07:59:27.152Z,101654.18
2018-07-09T08:02:31.467Z,101663.69
2018-07-09T08:05:35.812Z,101653.77
2018-07-09T08:08:40.278Z,101649.03
2018-07-09T08:11:48.552Z,101655.39
2018-07-09T08:14:49.679Z,101645.23
2018-07-09T08:17:54.033Z,101655.67
2018-07-09T08:20:59.200Z,101653.96
2018-07-09T08:24:03.375Z,101638.34
2018-07-09T08:27:08.054Z,101644.57
2018-07-09T08:30:12.735Z,101646.72
2018-07-09T08:33:17.079Z,101652.43
2018-07-09T08:36:21.438Z,101649.41
2018-07-09T08:39:25.554Z,101654.90
2018-07-09T08:42:30.076Z,101653.33
2018-07-09T08:45:35.356Z,101651.45
2018-07-09T08:48:39.857Z,101641.08
2018-07-09T08:51:45.500Z,101647.59
2018-07-09T08:54:49.820Z,101652.62
2018-07-09T08:57:55.399Z,101655.30
2018-07-09T09:01:00.369Z,101641.86
2018-07-09T09:04:05.099Z,101640.02
2018-07-09T09:07:09.666Z,101654.15
2018-07-09T09:10:14.123Z,101638.92
2018-07-09T09:13:20.341Z,101634.97
2018-07-09T09:16:24.669Z,101634.72
2018-07-09T09:19:29.040Z,101643.52
2018-07-09T09:22:33.526Z,101640.40
2018-07-09T09:25:38.221Z,101643.17
2018-07-09T09:28:42.805Z,101630.31
2018-07-09T09:31:47.465Z,101625.50
2018-07-09T09:34:51.837Z,101625.41
2018-07-09T09:37:56.503Z,101627.98
2018-07-09T09:41:00.865Z,101639.61
2018-07-09T09:44:05.412Z,101638.74
2018-07-09T09:47:09.818Z,101636.17
2018-07-09T09:50:14.128Z,101633.97
2018-07-09T09:53:18.452Z,101619.50
2018-07-09T09:56:24.454Z,101628.25
2018-07-09T09:59:28.854Z,101620.97
2018-07-09T10:02:33.910Z,101618.21
2018-07-09T10:05:38.633Z,101625.69
2018-07-09T10:08:43.275Z,101630.89
2018-07-09T10:11:47.940Z,101629.83
2018-07-09T10:14:52.418Z,101626.38
2018-07-09T10:17:57.175Z,101620.20
2018-07-09T10:21:01.528Z,101613.42
2018-07-09T10:24:06.082Z,101622.58
2018-07-09T10:27:11.579Z,101625.73
2018-07-09T10:30:16.645Z,101616.03
2018-07-09T10:33:21.073Z,101626.13
2018-07-09T10:36:26.209Z,101617.88
2018-07-09T10:39:31.235Z,101610.75
2018-07-09T10:42:36.363Z,101614.22
2018-07-09T10:45:42.849Z,101622.12
2018-07-09T10:48:47.343Z,101620.72
2018-07-09T10:51:52.366Z,101619.54
2018-07-09T10:54:59.319Z,101626.35
2018-07-09T10:58:04.186Z,101622.17
2018-07-09T11:01:13.203Z,101611.70
2018-07-09T11:04:18.089Z,101612.86
2018-07-09T11:07:22.719Z,101608.06
2018-07-09T11:10:27.486Z,101606.37
2018-07-09T11:13:32.034Z,101597.06
2018-07-09T11:16:36.990Z,101602.69
2018-07-09T11:19:41.456Z,101599.72
2018-07-09T11:22:47.437Z,101607.10
2018-07-09T11:25:51.927Z,101600.73
2018-07-09T11:28:56.861Z,101603.01
2018-07-09T11:32:01.314Z,101596.52
2018-07-09T11:35:06.057Z,101600.35
2018-07-09T11:38:10.385Z,101589.75
2018-07-09T11:41:15.011Z,101605.86
2018-07-09T11:44:20.443Z,101598.85
2018-07-09T11:47:25.102Z,101594.97
2018-07-09T11:50:29.910Z,101589.41
2018-07-09T11:53:34.290Z,101589.45
2018-07-09T11:56:38.756Z,101597.38
2018-07-09T11:59:43.721Z,101585.31
2018-07-09T12:02:48.213Z,101590.54
2018-07-09T12:05:52.731Z,101591.17
2018-07-09T12:08:57.769Z,101583.13
2018-07-09T12:12:03.052Z,101584.73
2018-07-09T12:15:07.402Z,101581.33
2018-07-09T12:18:11.779Z,101580.20
2018-07-09T12:21:16.340Z,101574.16
2018-07-09T12:24:22.555Z,101575.52
2018-07-09T12:27:27.120Z,101565.54
2018-07-09T12:30:31.465Z,101568.14
2018-07-09T12:33:35.911Z,101559.55
2018-07-09T12:36:42.333Z,101569.75
2018-07-09T12:39:47.338Z,101567.17
2018-07-09T12:42:52.989Z,101560.25
2018-07-09T12:45:58.201Z,101542.33
2018-07-09T12:49:03.333Z,101549.76
2018-07-09T12:52:07.881Z,101546.66
2018-07-09T12:55:13.210Z,101552.39
2018-07-09T12:58:18.090Z,101543.69
2018-07-09T13:01:23.173Z,101545.47
2018-07-09T13:04:27.859Z,101542.83
2018-07-09T13:07:33.186Z,101546.26
2018-07-09T13:10:38.699Z,101550.70
2018-07-09T13:13:43.586Z,101533.63
2018-07-09T13:16:49.056Z,101547.16
2018-07-09T13:19:53.413Z,101550.24
2018-07-09T13:22:58.311Z,101542.81
2018-07-09T13:26:03.349Z,101544.53
2018-07-09T13:29:08.294Z,101541.81
2018-07-09T13:32:13.034Z,101542.66
2018-07-09T13:35:17.602Z,101544.89
2018-07-09T13:38:22.833Z,101543.62
2018-07-09T13:41:29.868Z,101539.13
2018-07-09T13:44:35.008Z,101533.81
2018-07-09T13:47:39.243Z,101541.70
2018-07-09T13:50:44.170Z,101544.30
2018-07-09T13:53:48.955Z,101542.51
2018-07-09T13:56:54.240Z,101534.50
2018-07-09T13:59:58.904Z,101540.72
2018-07-09T14:03:03.404Z,101527.30
2018-07-09T14:06:08.239Z,101525.91
2018-07-09T14:09:12.553Z,101522.19
2018-07-09T14:12:17.685Z,101527.58
2018-07-09T14:15:22.414Z,101521.50
2018-07-09T14:18:27.126Z,101522.70
2018-07-09T14:21:32.056Z,101509.62
2018-07-09T14:24:36.835Z,101514.08
2018-07-09T14:27:41.705Z,101522.41
2018-07-09T14:30:46.868Z,101508.44
2018-07-09T14:33:51.299Z,101500.99
2018-07-09T14:36:55.995Z,101505.34
2018-07-09T14:40:00.621Z,101502.18
2018-07-09T14:43:07.877Z,101483.95
2018-07-09T14:46:12.240Z,101486.11
2018-07-09T14:49:17.261Z,101484.80
2018-07-09T14:52:22.209Z,101481.84
2018-07-09T14:55:27.293Z,101472.66
2018-07-09T14:58:38.632Z,101463.48
2018-07-09T15:01:43.203Z,101449.47
2018-07-09T15:04:48.141Z,101443.33
2018-07-09T15:07:52.725Z,101438.94
2018-07-09T15:10:57.648Z,101444.63
2018-07-09T15:14:02.639Z,101442.88
2018-07-09T15:17:07.808Z,101423.64
2018-07-09T15:20:13.457Z,101412.69
2018-07-09T15:23:18.397Z,101415.31
2018-07-09T15:26:22.854Z,101411.36
2018-07-09T15:29:27.325Z,101385.48
2018-07-09T15:32:32.545Z,101389.72
2018-07-09T15:35:36.977Z,101381.75
2018-07-09T15:38:41.426Z,101384.33
2018-07-09T15:41:47.658Z,101389.48
2018-07-09T15:44:52.287Z,101388.41
2018-07-09T15:47:57.228Z,101382.45
2018-07-09T15:51:01.768Z,101374.00
2018-07-09T15:54:06.108Z,101386.52
2018-07-09T15:57:10.544Z,101395.28
2018-07-09T16:00:15.584Z,101395.77
2018-07-09T16:03:20.328Z,101384.94
2018-07-09T16:06:25.122Z,101379.17
2018-07-09T16:09:30.118Z,101360.52
2018-07-09T16:12:34.765Z,101381.12
2018-07-09T16:15:39.773Z,101383.61
2018-07-09T16:18:45.151Z,101388.38
2018-07-09T16:21:51.072Z,101393.52
2018-07-09T16:24:56.013Z,101375.16
2018-07-09T16:28:00.933Z,101387.30
2018-07-09T16:31:06.017Z,101388.09
2018-07-09T16:34:10.387Z,101387.22
2018-07-09T16:37:15.125Z,101394.55
2018-07-09T16:40:19.426Z,101391.48
2018-07-09T16:43:25.610Z,101394.48
2018-07-09T16:46:30.509Z,101396.67
2018-07-09T16:49:35.755Z,101382.58
2018-07-09T16:52:42.142Z,101386.90
2018-07-09T16:55:47.381Z,101379.45
2018-07-09T16:58:51.929Z,101386.05
2018-07-09T17:01:56.216Z,101376.77
2018-07-09T17:05:00.934Z,101358.36
2018-07-09T17:08:06.373Z,101327.74
2018-07-09T17:11:11.052Z,101354.52
2018-07-09T17:14:15.930Z,101362.02
2018-07-09T17:17:20.468Z,101340.48
2018-07-09T17:20:25.001Z,101324.73
2018-07-09T17:23:29.642Z,101330.88
2018-07-09T17:26:34.528Z,101336.84
2018-07-09T17:29:42.929Z,101348.69
2018-07-09T17:32:47.902Z,101353.98
2018-07-09T17:35:52.433Z,101341.44
2018-07-09T17:38:56.870Z,101355.75
2018-07-09T17:42:01.337Z,101354.91
2018-07-09T17:45:06.587Z,101353.01
2018-07-09T17:48:11.034Z,101364.70
2018-07-09T17:51:16.056Z,101358.23
2018-07-09T17:54:20.726Z,101359.97
2018-07-09T17:57:25.050Z,101354.41
2018-07-09T18:00:29.796Z,101350.62
2018-07-09T18:03:34.111Z,101341.64
2018-07-09T18:06:38.991Z,101348.49
2018-07-09T18:09:44.504Z,101352.73
2018-07-09T18:12:49.166Z,101352.68
2018-07-09T18:15:54.262Z,101354.39
2018-07-09T18:18:58.621Z,101351.81
2018-07-09T18:22:03.428Z,101356.59
2018-07-09T18:25:08.982Z,101351.17
2018-07-09T18:28:13.362Z,101349.78
2018-07-09T18:31:17.699Z,101339.69
2018-07-09T18:34:22.104Z,101350.56
2018-07-09T18:37:26.501Z,101351.03
2018-07-09T18:40:31.127Z,101357.19
2018-07-09T18:43:35.490Z,101359.47
2018-07-09T18:46:39.921Z,101354.69
2018-07-09T18:49:44.704Z,101353.36
2018-07-09T18:52:49.428Z,101353.70
2018-07-09T18:55:53.595Z,101344.84
2018-07-09T18:58:58.340Z,101352.13
2018-07-09T19:02:03.239Z,101359.84
2018-07-09T19:05:07.723Z,101360.30
2018-07-09T19:08:12.370Z,101362.02
2018-07-09T19:11:16.691Z,101364.78
2018-07-09T19:14:30.014Z,101358.61
2018-07-09T19:19:16.701Z,101353.88
2018-07-09T19:22:28.256Z,101352.95
2018-07-09T19:25:31.158Z,101351.20
2018-07-09T19:28:34.180Z,101351.56
2018-07-09T19:31:37.071Z,101344.44
2018-07-09T19:34:39.918Z,101344.84
2018-07-09T19:37:42.958Z,101340.42
2018-07-09T19:40:45.477Z,101333.10
2018-07-09T19:43:48.298Z,101325.17
2018-07-09T19:46:51.410Z,101322.78
2018-07-09T19:49:54.278Z,101318.30
2018-07-09T19:52:57.053Z,101316.16
2018-07-09T19:55:59.966Z,101316.53
2018-07-09T19:59:03.923Z,101310.86
2018-07-09T20:02:06.841Z,101300.81
2018-07-09T20:05:09.731Z,101299.45
2018-07-09T20:08:12.605Z,101295.80
2018-07-09T20:11:21.038Z,101296.16
2018-07-09T20:14:29.351Z,101289.09
2018-07-09T20:17:35.995Z,101283.00
2018-07-09T20:20:38.919Z,101276.94
2018-07-09T20:23:42.143Z,101277.44
2018-07-09T20:26:44.962Z,101274.40
2018-07-09T20:29:47.894Z,101276.03
2018-07-09T20:32:52.428Z,101270.27
2018-07-09T20:35:55.309Z,101273.66
2018-07-09T20:38:58.174Z,101272.20
2018-07-09T20:42:05.758Z,101269.95
2018-07-09T20:45:08.579Z,101263.31
2018-07-09T20:48:11.630Z,101257.55
2018-07-09T20:51:14.846Z,101249.64
2018-07-09T20:54:18.047Z,101247.39
2018-07-09T20:57:20.926Z,101247.75
2018-07-09T21:00:24.150Z,101241.11
2018-07-09T21:03:26.981Z,101247.20
2018-07-09T21:06:30.733Z,101245.50
2018-07-09T21:09:35.221Z,101239.38
2018-07-09T21:12:43.567Z,101241.11
2018-07-09T21:15:46.862Z,101239.26
2018-07-09T21:18:49.900Z,101235.73
2018-07-09T21:21:53.823Z,101239.14
2018-07-09T21:24:56.642Z,101244.30
2018-07-09T21:27:59.758Z,101234.75
2018-07-09T21:31:04.015Z,101226.87
2018-07-09T21:34:06.779Z,101223.72
2018-07-09T21:37:10.896Z,101227.98
2018-07-09T21:40:13.714Z,101226.63
2018-07-09T21:43:16.674Z,101226.14
2018-07-09T21:46:20.904Z,101232.97
2018-07-09T21:49:31.496Z,101232.05
2018-07-09T21:52:34.726Z,101223.75
2018-07-09T21:55:42.426Z,101225.88
2018-07-09T21:58:49.568Z,101226.33
2018-07-09T22:01:53.525Z,101223.84
2018-07-09T22:04:56.677Z,101223.94
2018-07-09T22:08:00.181Z,101226.06
2018-07-09T22:11:05.156Z,101225.62
2018-07-09T22:14:08.766Z,101217.67
2018-07-09T22:17:12.263Z,101214.16
2018-07-09T22:20:15.837Z,101208.03
2018-07-09T22:23:25.994Z,101193.30
2018-07-09T22:26:29.272Z,101192.87
2018-07-09T22:32:58.625Z,101187.00
2018-07-09T22:36:26.297Z,101187.74
2018-07-09T22:39:34.731Z,101182.87
2018-07-09T22:42:40.188Z,101184.56
2018-07-09T22:45:47.571Z,101183.22
2018-07-09T22:48:54.296Z,101179.69
2018-07-09T22:52:00.103Z,101179.26
2018-07-09T22:56:12.049Z,101180.61
2018-07-09T22:59:16.500Z,101180.61
2018-07-09T23:02:26.580Z,101181.34
2018-07-09T23:05:30.910Z,101189.92
2018-07-09T23:08:35.267Z,101173.38
2018-07-09T23:13:32.908Z,101176.71
2018-07-09T23:16:54.278Z,101170.58
2018-07-09T23:20:41.019Z,101167.45
2018-07-09T23:23:44.625Z,101164.31
2018-07-09T23:26:48.031Z,101160.80
2018-07-09T23:29:51.861Z,101157.33
2018-07-09T23:32:55.368Z,101161.97
2018-07-09T23:35:59.418Z,101165.52
2018-07-09T23:39:12.456Z,101166.97
2018-07-09T23:42:15.468Z,101164.22
2018-07-09T23:45:20.557Z,101164.88
2018-07-09T23:48:25.114Z,101163.33
2018-07-09T23:51:28.245Z,101162.16
2018-07-09T23:54:32.005Z,101151.78
